地図

経路データ

SID SEASON NUMBER BASIN SUBBASIN NAME ISO_TIME NATURE LAT LON WMO_WIND WMO_PRES WMO_AGENCY TRACK_TYPE DIST2LAND LANDFALL IFLAG USA_AGENCY USA_ATCF_ID USA_LAT USA_LON USA_RECORD USA_STATUS USA_WIND USA_PRES USA_SSHS USA_R34_NE USA_R34_SE USA_R34_SW USA_R34_NW USA_R50_NE USA_R50_SE USA_R50_SW USA_R50_NW USA_R64_NE USA_R64_SE USA_R64_SW USA_R64_NW USA_POCI USA_ROCI USA_RMW USA_EYE TOKYO_LAT TOKYO_LON TOKYO_GRADE TOKYO_WIND TOKYO_PRES TOKYO_R50_DIR TOKYO_R50_LONG TOKYO_R50_SHORT TOKYO_R30_DIR TOKYO_R30_LONG TOKYO_R30_SHORT TOKYO_LAND CMA_LAT CMA_LON CMA_CAT CMA_WIND CMA_PRES HKO_LAT HKO_LON HKO_CAT HKO_WIND HKO_PRES NEWDELHI_LAT NEWDELHI_LON NEWDELHI_GRADE NEWDELHI_WIND NEWDELHI_PRES NEWDELHI_CI NEWDELHI_DP NEWDELHI_POCI REUNION_LAT REUNION_LON REUNION_TYPE REUNION_WIND REUNION_PRES REUNION_TNUM REUNION_CI REUNION_RMW REUNION_R34_NE REUNION_R34_SE REUNION_R34_SW REUNION_R34_NW REUNION_R50_NE REUNION_R50_SE REUNION_R50_SW REUNION_R50_NW REUNION_R64_NE REUNION_R64_SE REUNION_R64_SW REUNION_R64_NW BOM_LAT BOM_LON BOM_TYPE BOM_WIND BOM_PRES BOM_TNUM BOM_CI BOM_RMW BOM_R34_NE BOM_R34_SE BOM_R34_SW BOM_R34_NW BOM_R50_NE BOM_R50_SE BOM_R50_SW BOM_R50_NW BOM_R64_NE BOM_R64_SE BOM_R64_SW BOM_R64_NW BOM_ROCI BOM_POCI BOM_EYE BOM_POS_METHOD BOM_PRES_METHOD NADI_LAT NADI_LON NADI_CAT NADI_WIND NADI_PRES WELLINGTON_LAT WELLINGTON_LON WELLINGTON_WIND WELLINGTON_PRES DS824_LAT DS824_LON DS824_STAGE DS824_WIND DS824_PRES TD9636_LAT TD9636_LON TD9636_STAGE TD9636_WIND TD9636_PRES TD9635_LAT TD9635_LON TD9635_WIND TD9635_PRES TD9635_ROCI NEUMANN_LAT NEUMANN_LON NEUMANN_CLASS NEUMANN_WIND NEUMANN_PRES MLC_LAT MLC_LON MLC_CLASS MLC_WIND MLC_PRES USA_GUST BOM_GUST BOM_GUST_PER REUNION_GUST REUNION_GUST_PER USA_SEAHGT USA_SEARAD_NE USA_SEARAD_SE USA_SEARAD_SW USA_SEARAD_NW STORM_SPEED STORM_DIR
1929080S11076 1929 26 SI MM NOT_NAMED 1929-03-21 06:00:00 NR -10.8000 75.9000 reunion spur-split 1942 1942 _____O________ -1 -10.8000 75.9000 99 9.90000 3 244
1929080S11076 1929 26 SI MM NOT_NAMED 1929-03-21 09:00:00 NR -10.8582 75.7779 spur-split 1956 1956 _____P________ -1 -10.8582 75.7779 99 3 243
1929080S11076 1929 26 SI MM NOT_NAMED 1929-03-21 12:00:00 NR -10.9238 75.6578 spur-split 1959 1959 _____P________ -1 -10.9238 75.6578 99 3 238
1929080S11076 1929 26 SI MM NOT_NAMED 1929-03-21 15:00:00 NR -11.0046 75.5420 spur-split 1976 1976 _____P________ -1 -11.0046 75.5420 99 3 230
1929080S11076 1929 26 SI MM NOT_NAMED 1929-03-21 18:00:00 NR -11.1080 75.4325 spur-split 1989 1989 _____P________ -1 -11.1080 75.4325 99 3 221
1929080S11076 1929 26 SI MM NOT_NAMED 1929-03-21 21:00:00 NR -11.2416 75.3315 spur-split 2003 2003 _____P________ -1 -11.2416 75.3315 99 4 212
1929080S11076 1929 26 SI MM NOT_NAMED 1929-03-22 00:00:00 NR -11.4131 75.2410 spur-split 2028 2028 _____P________ -1 -11.4131 75.2410 99 4 203
1929080S11076 1929 26 SI MM NOT_NAMED 1929-03-22 03:00:00 NR -11.6300 75.1631 spur-split 2049 2049 _____P________ -1 -11.6300 75.1631 99 5 195
1929080S11076 1929 26 SI MM NOT_NAMED 1929-03-22 06:00:00 NR -11.9000 75.1000 reunion spur-split 2071 2055 _____O________ -1 -11.9000 75.1000 99 9.90000 6 190
1929080S11076 1929 26 SI MM NOT_NAMED 1929-03-22 09:00:00 NR -12.2267 75.0532 spur-split 2055 2024 _____P________ -1 -12.2267 75.0532 99 7 187
1929080S11076 1929 26 SI MM NOT_NAMED 1929-03-22 12:00:00 NR -12.5986 75.0221 spur-split 2024 2004 _____P________ -1 -12.5986 75.0221 99 8 183
1929080S11076 1929 26 SI MM NOT_NAMED 1929-03-22 15:00:00 NR -12.9998 75.0055 spur-split 2004 1985 _____P________ -1 -12.9998 75.0055 99 8 182
1929080S11076 1929 26 SI MM NOT_NAMED 1929-03-22 18:00:00 NR -13.4149 75.0023 spur-split 1985 1966 _____P________ -1 -13.4149 75.0023 99 8 0
1929080S11076 1929 26 SI MM NOT_NAMED 1929-03-22 21:00:00 NR -13.8281 75.0113 spur-split 1966 1948 _____P________ -1 -13.8281 75.0113 99 8 177
1929080S11076 1929 26 SI MM NOT_NAMED 1929-03-23 00:00:00 NR -14.2238 75.0314 spur-split 1948 1935 _____P________ -1 -14.2238 75.0314 99 8 176
1929080S11076 1929 26 SI MM NOT_NAMED 1929-03-23 03:00:00 NR -14.5863 75.0613 spur-split 1941 1929 _____P________ -1 -14.5863 75.0613 99 7 174
1929080S11076 1929 26 SI MM NOT_NAMED 1929-03-23 06:00:00 NR -14.9000 75.1000 reunion spur-split 1929 1921 _____O________ -1 -14.9000 75.1000 99 9.90000 6 172
1929080S11076 1929 26 SI MM NOT_NAMED 1929-03-23 09:00:00 NR -15.1533 75.1462 spur-split 1917 1917 _____P________ -1 -15.1533 75.1462 99 5 168
1929080S11076 1929 26 SI MM NOT_NAMED 1929-03-23 12:00:00 NR -15.3502 75.1989 spur-split 1920 1916 _____P________ -1 -15.3502 75.1989 99 4 164
1929080S11076 1929 26 SI MM NOT_NAMED 1929-03-23 15:00:00 NR -15.4989 75.2572 spur-split 1926 1923 _____P________ -1 -15.4989 75.2572 99 3 156
1929080S11076 1929 26 SI MM NOT_NAMED 1929-03-23 18:00:00 NR -15.6074 75.3202 spur-split 1923 1923 _____P________ -1 -15.6074 75.3202 99 2 146
1929080S11076 1929 26 SI MM NOT_NAMED 1929-03-23 21:00:00 NR -15.6837 75.3869 spur-split 1930 1930 _____P________ -1 -15.6837 75.3869 99 2 134
1929080S11076 1929 26 SI MM NOT_NAMED 1929-03-24 00:00:00 NR -15.7359 75.4564 spur-split 1940 1936 _____P________ -1 -15.7359 75.4564 99 2 123
1929080S11076 1929 26 SI MM NOT_NAMED 1929-03-24 03:00:00 NR -15.7720 75.5277 spur-split 1936 1936 _____P________ -1 -15.7720 75.5277 99 2 115
1929080S11076 1929 26 SI MM NOT_NAMED 1929-03-24 06:00:00 NR -15.8000 75.6000 reunion spur-split 1946 _____O________ -1 -15.8000 75.6000 99 9.90000 2 111

IBTrACS Databaseについて

本データベースは、米国NOAAが公開する1842年以降の世界の熱帯低気圧のベストトラックデータアーカイブInternational Best Track Archive for Climate Stewardship (IBTrACS)を、ウェブで閲覧しやすい形式に変換したものです。

最終更新日:2021-12-06